createdAt,value
2018-07-30T00:01:53.792Z,5.30
2018-07-30T00:05:57.379Z,3.20
2018-07-30T00:10:01.114Z,2.47
2018-07-30T00:14:04.828Z,6.00
2018-07-30T00:18:08.338Z,5.87
2018-07-30T00:22:12.252Z,3.60
2018-07-30T00:26:15.892Z,3.60
2018-07-30T00:30:19.439Z,5.83
2018-07-30T00:34:22.952Z,3.20
2018-07-30T00:38:26.598Z,3.13
2018-07-30T00:42:30.342Z,4.53
2018-07-30T00:46:33.908Z,3.87
2018-07-30T00:50:37.640Z,3.33
2018-07-30T00:54:41.606Z,6.33
2018-07-30T00:58:45.235Z,7.30
2018-07-30T01:02:48.842Z,3.17
2018-07-30T01:06:52.591Z,4.13
2018-07-30T01:10:56.520Z,3.60
2018-07-30T01:15:00.177Z,3.40
2018-07-30T01:19:03.976Z,3.70
2018-07-30T01:23:07.902Z,4.13
2018-07-30T01:27:11.457Z,4.83
2018-07-30T01:31:14.971Z,3.60
2018-07-30T01:35:18.753Z,4.83
2018-07-30T01:39:22.424Z,3.90
2018-07-30T01:43:26.508Z,3.63
2018-07-30T01:47:30.176Z,3.30
2018-07-30T01:51:33.998Z,5.00
2018-07-30T01:55:37.840Z,4.60
2018-07-30T01:59:41.664Z,3.77
2018-07-30T02:03:45.203Z,3.73
2018-07-30T02:07:49.115Z,3.50
2018-07-30T02:11:52.987Z,3.33
2018-07-30T02:15:56.900Z,2.67
2018-07-30T02:20:00.835Z,4.20
2018-07-30T02:24:04.527Z,8.03
2018-07-30T02:28:08.260Z,5.33
2018-07-30T02:32:12.240Z,4.90
2018-07-30T02:36:15.854Z,4.33
2018-07-30T02:40:19.667Z,4.00
2018-07-30T02:44:23.424Z,4.27
2018-07-30T02:48:26.983Z,5.57
2018-07-30T02:52:31.008Z,7.63
2018-07-30T02:56:34.675Z,6.90
2018-07-30T03:00:38.199Z,5.30
2018-07-30T03:04:41.833Z,5.00
2018-07-30T03:08:45.362Z,5.93
2018-07-30T03:12:48.930Z,5.10
2018-07-30T03:16:52.434Z,4.90
2018-07-30T03:20:56.256Z,5.20
2018-07-30T03:24:59.884Z,4.93
2018-07-30T03:29:03.468Z,6.20
2018-07-30T03:33:06.992Z,4.93
2018-07-30T03:37:10.745Z,8.63
2018-07-30T03:41:14.635Z,8.57
2018-07-30T03:45:18.419Z,5.27
2018-07-30T03:49:21.928Z,6.90
2018-07-30T03:53:25.523Z,8.00
2018-07-30T03:57:29.031Z,5.73
2018-07-30T04:01:32.682Z,5.90
2018-07-30T04:05:36.406Z,5.53
2018-07-30T04:09:40.072Z,4.90
2018-07-30T04:13:43.684Z,6.47
2018-07-30T04:17:47.231Z,5.27
2018-07-30T04:21:50.952Z,5.00
2018-07-30T04:25:54.856Z,6.70
2018-07-30T04:29:58.716Z,5.57
2018-07-30T04:34:02.395Z,6.47
2018-07-30T04:38:06.130Z,5.90
2018-07-30T04:42:09.783Z,5.93
2018-07-30T04:46:13.539Z,9.80
2018-07-30T04:50:17.359Z,5.57
2018-07-30T04:54:20.949Z,5.97
2018-07-30T04:58:24.727Z,6.80
2018-07-30T05:02:28.580Z,5.77
2018-07-30T05:06:32.464Z,6.23
2018-07-30T05:10:36.091Z,7.27
2018-07-30T05:14:39.928Z,5.40
2018-07-30T05:18:43.787Z,5.67
2018-07-30T05:22:47.684Z,16.70
2018-07-30T05:26:51.332Z,7.77
2018-07-30T05:30:54.899Z,6.47
2018-07-30T05:34:58.407Z,5.97
2018-07-30T05:39:02.320Z,6.13
2018-07-30T05:43:06.213Z,6.60
2018-07-30T05:47:09.983Z,5.83
2018-07-30T05:51:14.431Z,7.17
2018-07-30T05:55:18.005Z,6.13
2018-07-30T05:59:21.764Z,8.63
2018-07-30T06:03:25.456Z,10.47
2018-07-30T06:07:29.192Z,6.03
2018-07-30T06:11:32.875Z,10.30
2018-07-30T06:15:36.807Z,9.33
2018-07-30T06:19:40.459Z,6.20
2018-07-30T06:23:43.960Z,8.33
2018-07-30T06:27:48.361Z,6.10
2018-07-30T06:31:51.929Z,4.80
2018-07-30T06:35:55.431Z,6.77
2018-07-30T06:39:59.337Z,5.53
2018-07-30T06:44:03.468Z,7.70
2018-07-30T06:48:07.445Z,6.97
2018-07-30T06:52:11.144Z,5.80
2018-07-30T06:56:14.656Z,4.97
2018-07-30T07:00:18.424Z,6.90
2018-07-30T07:04:22.082Z,4.97
2018-07-30T07:08:25.884Z,4.17
2018-07-30T07:12:29.753Z,5.70
2018-07-30T07:16:33.743Z,4.83
2018-07-30T07:20:37.279Z,4.97
2018-07-30T07:24:40.787Z,4.20
2018-07-30T07:28:44.296Z,5.13
2018-07-30T07:32:48.137Z,9.63
2018-07-30T07:36:51.993Z,3.87
2018-07-30T07:40:55.981Z,6.30
2018-07-30T07:44:59.640Z,5.00
2018-07-30T07:49:03.431Z,4.53
2018-07-30T07:53:07.157Z,5.07
2018-07-30T07:57:10.791Z,6.23
2018-07-30T08:01:14.651Z,2.97
2018-07-30T08:05:19.919Z,3.97
2018-07-30T08:09:23.522Z,3.90
2018-07-30T08:13:27.352Z,4.77
2018-07-30T08:17:31.208Z,4.30
2018-07-30T08:21:34.888Z,3.13
2018-07-30T08:25:38.405Z,5.50
2018-07-30T08:29:42.092Z,3.70
2018-07-30T08:33:45.597Z,3.40
2018-07-30T08:37:49.239Z,5.70
2018-07-30T08:41:52.777Z,3.20
2018-07-30T08:45:56.544Z,6.47
2018-07-30T08:50:00.300Z,5.23
2018-07-30T08:54:03.944Z,4.23
2018-07-30T08:58:07.674Z,3.23
2018-07-30T09:02:11.511Z,2.97
2018-07-30T09:06:15.029Z,3.27
2018-07-30T09:10:19.264Z,3.53
2018-07-30T09:14:22.894Z,3.70
2018-07-30T09:18:26.579Z,3.50
2018-07-30T09:22:30.092Z,2.47
2018-07-30T09:26:33.752Z,4.20
2018-07-30T09:30:37.252Z,5.77
2018-07-30T09:34:41.016Z,2.93
2018-07-30T09:38:46.969Z,9.10
2018-07-30T09:42:50.611Z,3.67
2018-07-30T09:46:54.318Z,4.73
2018-07-30T09:50:58.307Z,3.20
2018-07-30T09:55:02.200Z,3.10
2018-07-30T09:59:05.870Z,4.73
2018-07-30T10:03:09.619Z,4.70
2018-07-30T10:07:13.963Z,3.53
2018-07-30T10:11:18.476Z,2.70
2018-07-30T10:15:22.246Z,2.93
2018-07-30T10:19:25.879Z,3.30
2018-07-30T10:23:29.629Z,6.73
2018-07-30T10:27:33.488Z,4.13
2018-07-30T10:31:37.390Z,3.20
2018-07-30T10:35:41.032Z,5.97
2018-07-30T10:39:44.601Z,3.03
2018-07-30T10:43:48.103Z,2.80
2018-07-30T10:47:51.892Z,3.47
2018-07-30T10:51:56.026Z,5.33
2018-07-30T10:55:59.940Z,3.07
2018-07-30T11:00:03.576Z,4.37
2018-07-30T11:04:07.348Z,5.50
2018-07-30T11:08:11.208Z,3.27
2018-07-30T11:12:14.936Z,4.27
2018-07-30T11:16:18.459Z,3.23
2018-07-30T11:20:22.316Z,3.90
2018-07-30T11:24:26.174Z,2.67
2018-07-30T11:28:29.875Z,2.83
2018-07-30T11:32:33.395Z,4.40
2018-07-30T11:36:37.064Z,3.23
2018-07-30T11:40:40.789Z,2.70
2018-07-30T11:44:44.677Z,3.27
2018-07-30T11:48:48.552Z,3.90
2018-07-30T11:52:52.479Z,4.07
2018-07-30T11:56:56.210Z,6.00
2018-07-30T12:00:59.920Z,3.40
2018-07-30T12:05:03.640Z,3.07
2018-07-30T12:09:07.463Z,3.00
2018-07-30T12:13:10.967Z,6.57
2018-07-30T12:17:14.507Z,4.10
2018-07-30T12:21:18.245Z,3.07
2018-07-30T12:25:22.167Z,3.53
2018-07-30T12:29:25.803Z,4.07
2018-07-30T12:33:29.358Z,5.03
2018-07-30T12:37:33.476Z,4.17
2018-07-30T12:41:37.580Z,2.63
2018-07-30T12:45:46.352Z,3.27
2018-07-30T12:49:50.187Z,4.53
2018-07-30T12:53:54.359Z,4.53
2018-07-30T12:57:57.904Z,2.43
2018-07-30T13:02:01.408Z,3.70
2018-07-30T13:06:05.166Z,4.87
2018-07-30T13:10:08.944Z,4.47
2018-07-30T13:14:12.856Z,6.00
2018-07-30T13:18:16.728Z,3.17
2018-07-30T13:22:20.394Z,3.17
2018-07-30T13:26:24.080Z,3.83
2018-07-30T13:30:27.784Z,4.73
2018-07-30T13:34:31.471Z,3.43
2018-07-30T13:38:35.123Z,3.10
2018-07-30T13:42:38.667Z,4.13
2018-07-30T13:46:42.257Z,3.30
2018-07-30T13:50:45.772Z,3.27
2018-07-30T13:54:49.771Z,4.30
2018-07-30T13:58:53.292Z,3.40
2018-07-30T14:02:57.188Z,5.67
2018-07-30T14:07:01.059Z,7.63
2018-07-30T14:11:04.724Z,4.47
2018-07-30T14:15:08.909Z,2.73
2018-07-30T14:19:12.499Z,3.23
2018-07-30T14:23:16.020Z,3.40
2018-07-30T14:27:19.783Z,3.70
2018-07-30T14:31:23.653Z,3.20
2018-07-30T14:35:27.460Z,2.77
2018-07-30T14:39:30.927Z,2.50
2018-07-30T14:43:35.793Z,3.17
2018-07-30T14:47:39.427Z,3.10
2018-07-30T14:51:43.004Z,2.60
2018-07-30T14:55:46.708Z,3.47
2018-07-30T14:59:50.350Z,2.30
2018-07-30T15:03:54.089Z,2.20
2018-07-30T15:07:57.869Z,1.90
2018-07-30T15:12:01.613Z,2.77
2018-07-30T15:16:05.291Z,2.67
2018-07-30T15:20:08.824Z,3.50
2018-07-30T15:28:12.417Z,2.67
2018-07-30T15:32:16.167Z,3.20
2018-07-30T15:36:19.911Z,4.03
2018-07-30T15:40:23.696Z,2.63
2018-07-30T15:44:27.384Z,2.63
2018-07-30T15:48:30.907Z,4.10
2018-07-30T15:52:34.543Z,5.13
2018-07-30T15:56:38.271Z,5.93
2018-07-30T16:00:42.082Z,2.53
2018-07-30T16:04:46.068Z,3.23
2018-07-30T16:08:49.771Z,2.43
2018-07-30T16:12:53.295Z,4.20
2018-07-30T16:16:57.137Z,2.20
2018-07-30T16:21:01.011Z,5.00
2018-07-30T16:25:04.853Z,4.13
2018-07-30T16:29:08.371Z,2.40
2018-07-30T16:33:12.216Z,2.10
2018-07-30T16:37:16.884Z,2.33
2018-07-30T16:41:20.497Z,2.00
2018-07-30T16:45:24.199Z,2.43
2018-07-30T16:49:28.103Z,2.40
2018-07-30T16:53:31.744Z,4.00
2018-07-30T16:57:35.704Z,3.03
2018-07-30T17:01:39.616Z,3.63
2018-07-30T17:05:43.296Z,5.07
2018-07-30T17:09:46.816Z,1.80
2018-07-30T17:13:50.464Z,2.80
2018-07-30T17:17:54.261Z,4.93
2018-07-30T17:21:58.896Z,2.80
2018-07-30T17:26:02.534Z,5.27
2018-07-30T17:30:06.812Z,3.90
2018-07-30T17:34:10.664Z,3.70
2018-07-30T17:38:14.684Z,2.53
2018-07-30T17:42:18.551Z,3.67
2018-07-30T17:48:47.785Z,3.33
2018-07-30T17:52:51.693Z,3.20
2018-07-30T17:56:55.394Z,6.50
2018-07-30T18:00:59.341Z,3.00
2018-07-30T18:05:03.152Z,2.70
2018-07-30T18:09:07.679Z,3.10
2018-07-30T18:13:11.347Z,3.07
2018-07-30T18:17:14.874Z,4.03
2018-07-30T18:21:18.459Z,3.03
2018-07-30T18:25:21.984Z,5.10
2018-07-30T18:29:25.657Z,4.77
2018-07-30T18:33:29.441Z,3.90
2018-07-30T18:37:33.440Z,3.10
2018-07-30T18:41:37.097Z,4.17
2018-07-30T18:45:40.921Z,2.87
2018-07-30T18:49:44.571Z,4.23
2018-07-30T18:53:48.130Z,3.03
2018-07-30T18:57:51.655Z,3.63
2018-07-30T19:01:55.589Z,4.07
2018-07-30T19:05:59.163Z,3.70
2018-07-30T19:10:02.912Z,3.97
2018-07-30T19:14:06.855Z,2.60
2018-07-30T19:18:10.527Z,4.30
2018-07-30T19:22:14.080Z,4.93
2018-07-30T19:26:17.836Z,3.17
2018-07-30T19:30:21.503Z,4.53
2018-07-30T19:34:25.184Z,2.50
2018-07-30T19:38:28.713Z,3.07
2018-07-30T19:42:32.484Z,2.90
2018-07-30T19:46:36.571Z,7.73
2018-07-30T19:50:40.275Z,4.83
2018-07-30T19:54:43.798Z,5.50
2018-07-30T19:58:47.658Z,5.00
2018-07-30T20:02:51.228Z,6.50
2018-07-30T20:06:55.021Z,8.07
2018-07-30T20:10:58.635Z,6.80
2018-07-30T20:15:02.193Z,4.03
2018-07-30T20:19:05.719Z,4.60
2018-07-30T20:23:09.267Z,5.47
2018-07-30T20:27:12.795Z,4.03
2018-07-30T20:31:22.089Z,4.60
2018-07-30T20:35:25.736Z,4.07
2018-07-30T20:39:29.275Z,4.73
2018-07-30T20:43:33.016Z,6.67
2018-07-30T20:47:36.863Z,3.73
2018-07-30T20:51:41.402Z,6.30
2018-07-30T20:55:45.044Z,5.83
2018-07-30T20:59:48.580Z,6.20
2018-07-30T21:03:52.267Z,6.03
2018-07-30T21:07:56.115Z,9.00
2018-07-30T21:12:00.029Z,6.00
2018-07-30T21:16:03.667Z,7.10
2018-07-30T21:20:07.259Z,7.20
2018-07-30T21:24:10.764Z,6.60
2018-07-30T21:28:14.311Z,7.80
2018-07-30T21:32:17.836Z,14.40
2018-07-30T21:36:21.487Z,18.17
2018-07-30T21:40:25.280Z,13.37
2018-07-30T21:44:28.887Z,12.47
2018-07-30T21:48:32.480Z,10.73
2018-07-30T21:52:36.255Z,9.23
2018-07-30T21:56:39.899Z,7.23
2018-07-30T22:00:47.792Z,7.50
2018-07-30T22:04:51.495Z,6.87
2018-07-30T22:08:55.066Z,7.33
2018-07-30T22:12:58.584Z,7.20
2018-07-30T22:17:02.172Z,7.43
2018-07-30T22:21:05.996Z,6.30
2018-07-30T22:25:09.683Z,6.27
2018-07-30T22:29:13.419Z,6.90
2018-07-30T22:33:17.233Z,5.57
2018-07-30T22:37:20.972Z,4.03
2018-07-30T22:41:24.867Z,5.40
2018-07-30T22:45:28.917Z,3.57
2018-07-30T22:49:32.902Z,4.50
2018-07-30T22:53:36.800Z,3.40
2018-07-30T22:57:40.505Z,6.60
2018-07-30T23:01:44.015Z,4.10
2018-07-30T23:05:48.085Z,3.10
2018-07-30T23:09:51.739Z,3.53
2018-07-30T23:13:55.643Z,2.80
2018-07-30T23:17:59.577Z,4.40
2018-07-30T23:22:09.917Z,2.90
2018-07-30T23:26:13.447Z,2.80
2018-07-30T23:30:17.232Z,3.53
2018-07-30T23:34:21.084Z,2.90
2018-07-30T23:38:25.013Z,3.10
2018-07-30T23:42:28.648Z,5.90
2018-07-30T23:46:32.208Z,3.00
2018-07-30T23:50:35.951Z,3.67
2018-07-30T23:54:39.877Z,3.63
2018-07-30T23:58:43.515Z,3.07
